sensor_id;sensor_type;location;lat;lon;timestamp;temperature;humidity
52285;DHT22;38238;53.304;6.606;2022-12-20T00:00:57;9.70;99.90
52285;DHT22;38238;53.304;6.606;2022-12-20T00:03:23;9.60;99.90
52285;DHT22;38238;53.304;6.606;2022-12-20T00:05:49;9.30;99.90
52285;DHT22;38238;53.304;6.606;2022-12-20T00:08:15;9.30;99.90
52285;DHT22;38238;53.304;6.606;2022-12-20T00:10:43;9.30;99.90
52285;DHT22;38238;53.304;6.606;2022-12-20T00:13:10;9.30;99.90
52285;DHT22;38238;53.304;6.606;2022-12-20T00:15:36;9.30;99.90
52285;DHT22;38238;53.304;6.606;2022-12-20T00:18:02;9.30;99.90
52285;DHT22;38238;53.304;6.606;2022-12-20T00:20:29;9.30;99.90
52285;DHT22;38238;53.304;6.606;2022-12-20T00:22:55;9.30;99.90
52285;DHT22;38238;53.304;6.606;2022-12-20T00:25:21;9.30;99.90
52285;DHT22;38238;53.304;6.606;2022-12-20T00:27:48;9.30;99.90
52285;DHT22;38238;53.304;6.606;2022-12-20T00:30:14;9.30;99.90
52285;DHT22;38238;53.304;6.606;2022-12-20T00:32:40;9.20;99.90
52285;DHT22;38238;53.304;6.606;2022-12-20T00:35:06;9.20;99.90
52285;DHT22;38238;53.304;6.606;2022-12-20T00:37:32;9.20;99.90
52285;DHT22;38238;53.304;6.606;2022-12-20T00:39:58;10.70;99.90
52285;DHT22;38238;53.304;6.606;2022-12-20T00:42:23;9.10;99.90
52285;DHT22;38238;53.304;6.606;2022-12-20T00:44:49;9.20;99.90
52285;DHT22;38238;53.304;6.606;2022-12-20T00:47:15;9.60;99.90
52285;DHT22;38238;53.304;6.606;2022-12-20T00:49:40;9.20;99.90
52285;DHT22;38238;53.304;6.606;2022-12-20T00:52:06;9.30;99.90
52285;DHT22;38238;53.304;6.606;2022-12-20T00:54:32;9.30;99.90
52285;DHT22;38238;53.304;6.606;2022-12-20T00:56:58;9.30;99.90
52285;DHT22;38238;53.304;6.606;2022-12-20T00:59:24;9.30;99.90
52285;DHT22;38238;53.304;6.606;2022-12-20T01:01:50;9.30;99.90
52285;DHT22;38238;53.304;6.606;2022-12-20T01:04:16;9.30;99.90
52285;DHT22;38238;53.304;6.606;2022-12-20T01:06:42;9.50;99.90
52285;DHT22;38238;53.304;6.606;2022-12-20T01:09:09;9.30;99.90
52285;DHT22;38238;53.304;6.606;2022-12-20T01:11:36;9.30;99.90
52285;DHT22;38238;53.304;6.606;2022-12-20T01:14:05;9.30;99.90
52285;DHT22;38238;53.304;6.606;2022-12-20T01:16:37;9.20;99.90
52285;DHT22;38238;53.304;6.606;2022-12-20T01:19:03;9.30;99.90
52285;DHT22;38238;53.304;6.606;2022-12-20T01:21:30;9.20;99.90
52285;DHT22;38238;53.304;6.606;2022-12-20T01:23:56;9.30;99.90
52285;DHT22;38238;53.304;6.606;2022-12-20T01:26:24;9.10;99.90
52285;DHT22;38238;53.304;6.606;2022-12-20T01:28:53;9.30;99.90
52285;DHT22;38238;53.304;6.606;2022-12-20T01:31:20;9.30;99.90
52285;DHT22;38238;53.304;6.606;2022-12-20T01:33:49;9.30;99.90
52285;DHT22;38238;53.304;6.606;2022-12-20T01:36:20;9.30;99.90
52285;DHT22;38238;53.304;6.606;2022-12-20T01:38:46;9.40;99.90
52285;DHT22;38238;53.304;6.606;2022-12-20T01:41:20;9.40;99.90
52285;DHT22;38238;53.304;6.606;2022-12-20T01:46:19;9.40;99.90
52285;DHT22;38238;53.304;6.606;2022-12-20T01:48:52;9.40;99.90
52285;DHT22;38238;53.304;6.606;2022-12-20T01:51:22;9.60;99.90
52285;DHT22;38238;53.304;6.606;2022-12-20T01:53:52;9.40;99.90
52285;DHT22;38238;53.304;6.606;2022-12-20T01:56:20;9.40;99.90
52285;DHT22;38238;53.304;6.606;2022-12-20T01:58:47;9.40;99.90
52285;DHT22;38238;53.304;6.606;2022-12-20T02:01:13;9.30;99.90
52285;DHT22;38238;53.304;6.606;2022-12-20T02:03:41;9.40;99.90
52285;DHT22;38238;53.304;6.606;2022-12-20T02:06:14;9.40;99.90
52285;DHT22;38238;53.304;6.606;2022-12-20T02:08:40;9.30;99.90
52285;DHT22;38238;53.304;6.606;2022-12-20T02:13:53;9.30;99.90
52285;DHT22;38238;53.304;6.606;2022-12-20T02:16:26;9.30;99.90
52285;DHT22;38238;53.304;6.606;2022-12-20T02:19:13;9.30;99.90
52285;DHT22;38238;53.304;6.606;2022-12-20T02:21:48;9.30;99.90
52285;DHT22;38238;53.304;6.606;2022-12-20T02:27:38;9.30;99.90
52285;DHT22;38238;53.304;6.606;2022-12-20T02:30:17;9.30;99.90
52285;DHT22;38238;53.304;6.606;2022-12-20T02:33:04;9.30;99.90
52285;DHT22;38238;53.304;6.606;2022-12-20T02:35:34;9.30;99.90
52285;DHT22;38238;53.304;6.606;2022-12-20T02:38:03;9.30;99.90
52285;DHT22;38238;53.304;6.606;2022-12-20T02:40:37;9.60;99.90
52285;DHT22;38238;53.304;6.606;2022-12-20T02:43:06;9.30;99.90
52285;DHT22;38238;53.304;6.606;2022-12-20T02:45:54;9.30;99.90
52285;DHT22;38238;53.304;6.606;2022-12-20T02:48:23;9.30;99.90
52285;DHT22;38238;53.304;6.606;2022-12-20T02:50:52;9.20;99.90
52285;DHT22;38238;53.304;6.606;2022-12-20T02:53:19;9.20;99.90
52285;DHT22;38238;53.304;6.606;2022-12-20T02:56:17;9.60;99.90
52285;DHT22;38238;53.304;6.606;2022-12-20T03:01:55;9.20;99.90
52285;DHT22;38238;53.304;6.606;2022-12-20T03:04:26;9.20;99.90
52285;DHT22;38238;53.304;6.606;2022-12-20T03:09:29;9.20;99.90
52285;DHT22;38238;53.304;6.606;2022-12-20T03:11:55;9.20;99.90
52285;DHT22;38238;53.304;6.606;2022-12-20T03:14:21;9.20;99.90
52285;DHT22;38238;53.304;6.606;2022-12-20T03:16:46;9.10;99.90
52285;DHT22;38238;53.304;6.606;2022-12-20T03:19:12;9.10;99.90
52285;DHT22;38238;53.304;6.606;2022-12-20T03:21:38;9.10;99.90
52285;DHT22;38238;53.304;6.606;2022-12-20T03:24:04;9.20;99.90
52285;DHT22;38238;53.304;6.606;2022-12-20T03:26:29;9.00;99.90
52285;DHT22;38238;53.304;6.606;2022-12-20T03:28:55;9.00;99.90
52285;DHT22;38238;53.304;6.606;2022-12-20T03:31:21;9.00;99.90
52285;DHT22;38238;53.304;6.606;2022-12-20T03:33:47;9.00;99.90
52285;DHT22;38238;53.304;6.606;2022-12-20T03:36:13;9.00;99.90
52285;DHT22;38238;53.304;6.606;2022-12-20T03:38:38;9.00;99.90
52285;DHT22;38238;53.304;6.606;2022-12-20T03:41:04;9.00;99.90
52285;DHT22;38238;53.304;6.606;2022-12-20T03:43:30;9.00;99.90
52285;DHT22;38238;53.304;6.606;2022-12-20T03:45:56;9.00;99.90
52285;DHT22;38238;53.304;6.606;2022-12-20T03:48:22;9.10;99.90
52285;DHT22;38238;53.304;6.606;2022-12-20T03:50:47;9.10;99.90
52285;DHT22;38238;53.304;6.606;2022-12-20T03:53:13;9.10;99.90
52285;DHT22;38238;53.304;6.606;2022-12-20T03:55:39;9.10;99.90
52285;DHT22;38238;53.304;6.606;2022-12-20T03:58:04;9.20;99.90
52285;DHT22;38238;53.304;6.606;2022-12-20T04:00:30;9.50;99.90
52285;DHT22;38238;53.304;6.606;2022-12-20T04:02:56;9.20;99.90
52285;DHT22;38238;53.304;6.606;2022-12-20T04:05:21;9.10;99.90
52285;DHT22;38238;53.304;6.606;2022-12-20T04:07:47;9.10;99.90
52285;DHT22;38238;53.304;6.606;2022-12-20T04:10:13;9.10;99.90
52285;DHT22;38238;53.304;6.606;2022-12-20T04:12:38;9.10;99.90
52285;DHT22;38238;53.304;6.606;2022-12-20T04:15:04;9.10;99.90
52285;DHT22;38238;53.304;6.606;2022-12-20T04:17:30;9.10;99.90
52285;DHT22;38238;53.304;6.606;2022-12-20T04:19:56;9.10;99.90
52285;DHT22;38238;53.304;6.606;2022-12-20T04:22:21;9.10;99.90
52285;DHT22;38238;53.304;6.606;2022-12-20T04:24:47;9.10;99.90
52285;DHT22;38238;53.304;6.606;2022-12-20T04:27:13;9.10;99.90
52285;DHT22;38238;53.304;6.606;2022-12-20T04:29:39;9.40;99.90
52285;DHT22;38238;53.304;6.606;2022-12-20T04:32:04;9.10;99.90
52285;DHT22;38238;53.304;6.606;2022-12-20T04:34:30;9.10;99.90
52285;DHT22;38238;53.304;6.606;2022-12-20T04:36:56;9.20;99.90
52285;DHT22;38238;53.304;6.606;2022-12-20T04:39:22;9.30;99.90
52285;DHT22;38238;53.304;6.606;2022-12-20T04:41:47;9.30;99.90
52285;DHT22;38238;53.304;6.606;2022-12-20T04:44:13;9.40;99.90
52285;DHT22;38238;53.304;6.606;2022-12-20T04:46:39;9.50;99.90
52285;DHT22;38238;53.304;6.606;2022-12-20T04:49:04;9.30;99.90
52285;DHT22;38238;53.304;6.606;2022-12-20T04:51:30;9.40;99.90
52285;DHT22;38238;53.304;6.606;2022-12-20T04:53:56;9.40;99.90
52285;DHT22;38238;53.304;6.606;2022-12-20T04:56:26;9.40;99.90
52285;DHT22;38238;53.304;6.606;2022-12-20T04:58:54;9.40;99.90
52285;DHT22;38238;53.304;6.606;2022-12-20T05:01:21;9.40;99.90
52285;DHT22;38238;53.304;6.606;2022-12-20T05:03:47;9.40;99.90
52285;DHT22;38238;53.304;6.606;2022-12-20T05:06:14;9.40;99.90
52285;DHT22;38238;53.304;6.606;2022-12-20T05:08:40;9.40;99.90
52285;DHT22;38238;53.304;6.606;2022-12-20T05:11:06;9.50;99.90
52285;DHT22;38238;53.304;6.606;2022-12-20T05:13:33;9.60;99.90
52285;DHT22;38238;53.304;6.606;2022-12-20T05:15:59;9.50;99.90
52285;DHT22;38238;53.304;6.606;2022-12-20T05:18:25;9.60;99.90
52285;DHT22;38238;53.304;6.606;2022-12-20T05:20:55;9.60;99.90
52285;DHT22;38238;53.304;6.606;2022-12-20T05:23:40;9.60;99.90
52285;DHT22;38238;53.304;6.606;2022-12-20T05:26:25;9.70;99.90
52285;DHT22;38238;53.304;6.606;2022-12-20T05:28:52;10.00;99.90
52285;DHT22;38238;53.304;6.606;2022-12-20T05:31:18;9.70;99.90
52285;DHT22;38238;53.304;6.606;2022-12-20T05:33:43;9.70;99.90
52285;DHT22;38238;53.304;6.606;2022-12-20T05:36:11;10.00;99.90
52285;DHT22;38238;53.304;6.606;2022-12-20T05:38:37;9.80;99.90
52285;DHT22;38238;53.304;6.606;2022-12-20T05:41:02;9.80;99.90
52285;DHT22;38238;53.304;6.606;2022-12-20T05:43:30;9.80;99.90
52285;DHT22;38238;53.304;6.606;2022-12-20T05:45:56;9.80;99.90
52285;DHT22;38238;53.304;6.606;2022-12-20T05:48:21;9.80;99.90
52285;DHT22;38238;53.304;6.606;2022-12-20T05:50:47;9.80;99.90
52285;DHT22;38238;53.304;6.606;2022-12-20T05:53:14;9.80;99.90
52285;DHT22;38238;53.304;6.606;2022-12-20T05:55:50;9.80;99.90
52285;DHT22;38238;53.304;6.606;2022-12-20T05:58:16;9.80;99.90
52285;DHT22;38238;53.304;6.606;2022-12-20T06:00:43;9.80;99.90
52285;DHT22;38238;53.304;6.606;2022-12-20T06:03:10;9.90;99.90
52285;DHT22;38238;53.304;6.606;2022-12-20T06:05:37;9.90;99.90
52285;DHT22;38238;53.304;6.606;2022-12-20T06:08:04;10.00;99.90
52285;DHT22;38238;53.304;6.606;2022-12-20T06:10:31;10.00;99.90
52285;DHT22;38238;53.304;6.606;2022-12-20T06:12:57;10.30;99.90
52285;DHT22;38238;53.304;6.606;2022-12-20T06:15:23;10.00;99.90
52285;DHT22;38238;53.304;6.606;2022-12-20T06:17:48;10.10;99.90
52285;DHT22;38238;53.304;6.606;2022-12-20T06:20:14;10.20;99.90
52285;DHT22;38238;53.304;6.606;2022-12-20T06:22:43;10.10;99.90
52285;DHT22;38238;53.304;6.606;2022-12-20T06:25:09;10.10;99.90
52285;DHT22;38238;53.304;6.606;2022-12-20T06:27:37;10.10;99.90
52285;DHT22;38238;53.304;6.606;2022-12-20T06:30:06;10.10;99.90
52285;DHT22;38238;53.304;6.606;2022-12-20T06:32:32;10.10;99.90
52285;DHT22;38238;53.304;6.606;2022-12-20T06:34:58;10.10;99.90
52285;DHT22;38238;53.304;6.606;2022-12-20T06:37:24;10.10;99.90
52285;DHT22;38238;53.304;6.606;2022-12-20T06:39:50;10.20;99.90
52285;DHT22;38238;53.304;6.606;2022-12-20T06:42:15;10.10;99.90
52285;DHT22;38238;53.304;6.606;2022-12-20T06:44:41;10.10;99.90
52285;DHT22;38238;53.304;6.606;2022-12-20T06:47:07;10.10;99.90
52285;DHT22;38238;53.304;6.606;2022-12-20T06:49:32;10.10;99.90
52285;DHT22;38238;53.304;6.606;2022-12-20T06:51:58;10.10;99.90
52285;DHT22;38238;53.304;6.606;2022-12-20T06:54:24;10.10;99.90
52285;DHT22;38238;53.304;6.606;2022-12-20T06:56:49;10.10;99.90
52285;DHT22;38238;53.304;6.606;2022-12-20T06:59:15;10.10;99.90
52285;DHT22;38238;53.304;6.606;2022-12-20T07:01:41;10.20;99.90
52285;DHT22;38238;53.304;6.606;2022-12-20T07:04:07;10.10;99.90
52285;DHT22;38238;53.304;6.606;2022-12-20T07:06:32;10.60;99.90
52285;DHT22;38238;53.304;6.606;2022-12-20T07:08:58;10.20;99.90
52285;DHT22;38238;53.304;6.606;2022-12-20T07:11:24;10.40;99.90
52285;DHT22;38238;53.304;6.606;2022-12-20T07:13:54;10.20;99.90
52285;DHT22;38238;53.304;6.606;2022-12-20T07:16:21;10.20;99.90
52285;DHT22;38238;53.304;6.606;2022-12-20T07:18:51;10.20;99.90
52285;DHT22;38238;53.304;6.606;2022-12-20T07:21:17;10.20;99.90
52285;DHT22;38238;53.304;6.606;2022-12-20T07:23:44;10.20;99.90
52285;DHT22;38238;53.304;6.606;2022-12-20T07:26:10;10.20;99.90
52285;DHT22;38238;53.304;6.606;2022-12-20T07:28:36;10.20;99.90
52285;DHT22;38238;53.304;6.606;2022-12-20T07:31:02;10.10;99.90
52285;DHT22;38238;53.304;6.606;2022-12-20T07:33:29;10.20;99.90
52285;DHT22;38238;53.304;6.606;2022-12-20T07:36:06;10.10;99.90
52285;DHT22;38238;53.304;6.606;2022-12-20T07:38:32;10.10;99.90
52285;DHT22;38238;53.304;6.606;2022-12-20T07:40:58;10.20;99.90
52285;DHT22;38238;53.304;6.606;2022-12-20T07:43:24;10.10;99.90
52285;DHT22;38238;53.304;6.606;2022-12-20T07:45:54;10.00;99.90
52285;DHT22;38238;53.304;6.606;2022-12-20T07:48:21;10.10;99.90
52285;DHT22;38238;53.304;6.606;2022-12-20T07:50:50;10.10;99.90
52285;DHT22;38238;53.304;6.606;2022-12-20T07:53:15;10.10;99.90
52285;DHT22;38238;53.304;6.606;2022-12-20T07:55:42;10.10;99.90
52285;DHT22;38238;53.304;6.606;2022-12-20T07:58:10;10.10;99.90
52285;DHT22;38238;53.304;6.606;2022-12-20T08:00:37;10.10;99.90
52285;DHT22;38238;53.304;6.606;2022-12-20T08:05:43;10.00;99.90
52285;DHT22;38238;53.304;6.606;2022-12-20T08:08:10;10.00;99.90
52285;DHT22;38238;53.304;6.606;2022-12-20T08:10:36;10.20;99.90
52285;DHT22;38238;53.304;6.606;2022-12-20T08:13:04;10.00;99.90
52285;DHT22;38238;53.304;6.606;2022-12-20T08:15:30;9.90;99.90
52285;DHT22;38238;53.304;6.606;2022-12-20T08:17:56;10.00;99.90
52285;DHT22;38238;53.304;6.606;2022-12-20T08:20:22;10.00;99.90
52285;DHT22;38238;53.304;6.606;2022-12-20T08:22:48;10.00;99.90
52285;DHT22;38238;53.304;6.606;2022-12-20T08:25:13;10.00;99.90
52285;DHT22;38238;53.304;6.606;2022-12-20T08:27:39;10.10;99.90
52285;DHT22;38238;53.304;6.606;2022-12-20T08:30:05;10.10;99.90
52285;DHT22;38238;53.304;6.606;2022-12-20T08:32:33;10.10;99.90
52285;DHT22;38238;53.304;6.606;2022-12-20T08:34:58;10.10;99.90
52285;DHT22;38238;53.304;6.606;2022-12-20T08:37:24;10.10;99.90
52285;DHT22;38238;53.304;6.606;2022-12-20T08:39:50;10.10;99.90
52285;DHT22;38238;53.304;6.606;2022-12-20T08:42:16;11.00;99.90
52285;DHT22;38238;53.304;6.606;2022-12-20T08:44:41;10.20;99.90
52285;DHT22;38238;53.304;6.606;2022-12-20T08:47:08;10.20;99.90
52285;DHT22;38238;53.304;6.606;2022-12-20T08:49:35;10.20;99.90
52285;DHT22;38238;53.304;6.606;2022-12-20T08:52:01;10.30;99.90
52285;DHT22;38238;53.304;6.606;2022-12-20T08:54:26;10.30;99.90
52285;DHT22;38238;53.304;6.606;2022-12-20T08:56:52;10.30;99.90
52285;DHT22;38238;53.304;6.606;2022-12-20T08:59:18;10.30;99.90
52285;DHT22;38238;53.304;6.606;2022-12-20T09:01:44;10.30;99.90
52285;DHT22;38238;53.304;6.606;2022-12-20T09:04:10;10.30;99.90
52285;DHT22;38238;53.304;6.606;2022-12-20T09:06:36;10.60;99.90
52285;DHT22;38238;53.304;6.606;2022-12-20T09:09:04;10.30;99.90
52285;DHT22;38238;53.304;6.606;2022-12-20T09:11:30;10.30;99.90
52285;DHT22;38238;53.304;6.606;2022-12-20T09:13:57;10.40;99.90
52285;DHT22;38238;53.304;6.606;2022-12-20T09:16:25;10.30;99.90
52285;DHT22;38238;53.304;6.606;2022-12-20T09:18:53;10.40;99.90
52285;DHT22;38238;53.304;6.606;2022-12-20T09:21:20;10.40;99.90
52285;DHT22;38238;53.304;6.606;2022-12-20T09:23:49;10.40;99.90
52285;DHT22;38238;53.304;6.606;2022-12-20T09:26:16;10.40;99.90
52285;DHT22;38238;53.304;6.606;2022-12-20T09:28:43;10.50;99.90
52285;DHT22;38238;53.304;6.606;2022-12-20T09:31:14;10.50;99.90
52285;DHT22;38238;53.304;6.606;2022-12-20T09:33:40;10.50;99.90
52285;DHT22;38238;53.304;6.606;2022-12-20T09:36:09;10.50;99.90
52285;DHT22;38238;53.304;6.606;2022-12-20T09:38:35;10.50;99.90
52285;DHT22;38238;53.304;6.606;2022-12-20T09:41:03;10.50;99.90
52285;DHT22;38238;53.304;6.606;2022-12-20T09:43:31;10.50;99.90
52285;DHT22;38238;53.304;6.606;2022-12-20T09:46:00;10.60;99.90
52285;DHT22;38238;53.304;6.606;2022-12-20T09:48:37;10.60;99.90
52285;DHT22;38238;53.304;6.606;2022-12-20T09:56:46;10.80;99.90
52285;DHT22;38238;53.304;6.606;2022-12-20T09:59:18;10.80;99.90
52285;DHT22;38238;53.304;6.606;2022-12-20T10:01:48;10.90;99.90
52285;DHT22;38238;53.304;6.606;2022-12-20T10:04:23;10.90;99.90
52285;DHT22;38238;53.304;6.606;2022-12-20T10:07:37;10.90;99.90
52285;DHT22;38238;53.304;6.606;2022-12-20T10:10:35;11.00;99.90
52285;DHT22;38238;53.304;6.606;2022-12-20T10:19:26;10.90;99.90
52285;DHT22;38238;53.304;6.606;2022-12-20T10:24:37;10.90;99.90
52285;DHT22;38238;53.304;6.606;2022-12-20T10:27:13;10.90;99.90
52285;DHT22;38238;53.304;6.606;2022-12-20T10:29:40;10.90;99.90
52285;DHT22;38238;53.304;6.606;2022-12-20T10:32:16;10.90;99.90
52285;DHT22;38238;53.304;6.606;2022-12-20T10:35:00;10.90;99.90
52285;DHT22;38238;53.304;6.606;2022-12-20T10:43:21;10.90;99.90
52285;DHT22;38238;53.304;6.606;2022-12-20T10:48:30;10.90;99.90
52285;DHT22;38238;53.304;6.606;2022-12-20T10:53:26;10.90;99.90
52285;DHT22;38238;53.304;6.606;2022-12-20T10:55:54;10.90;99.90
52285;DHT22;38238;53.304;6.606;2022-12-20T10:58:36;10.90;99.90
52285;DHT22;38238;53.304;6.606;2022-12-20T11:04:07;10.90;99.90
52285;DHT22;38238;53.304;6.606;2022-12-20T11:12:14;10.90;99.90
52285;DHT22;38238;53.304;6.606;2022-12-20T11:14:42;10.90;99.90
52285;DHT22;38238;53.304;6.606;2022-12-20T11:17:34;9.40;99.90
52285;DHT22;38238;53.304;6.606;2022-12-20T11:25:43;10.90;99.90
52285;DHT22;38238;53.304;6.606;2022-12-20T11:28:14;10.80;99.90
52285;DHT22;38238;53.304;6.606;2022-12-20T11:36:03;10.70;99.90
52285;DHT22;38238;53.304;6.606;2022-12-20T11:46:40;10.70;99.90
52285;DHT22;38238;53.304;6.606;2022-12-20T11:52:30;10.60;99.90
52285;DHT22;38238;53.304;6.606;2022-12-20T11:55:17;10.70;99.90
52285;DHT22;38238;53.304;6.606;2022-12-20T11:57:47;10.70;99.90
52285;DHT22;38238;53.304;6.606;2022-12-20T12:00:23;10.70;99.90
52285;DHT22;38238;53.304;6.606;2022-12-20T12:03:20;10.60;99.90
52285;DHT22;38238;53.304;6.606;2022-12-20T12:06:05;10.60;99.90
52285;DHT22;38238;53.304;6.606;2022-12-20T12:09:00;10.60;99.90
52285;DHT22;38238;53.304;6.606;2022-12-20T12:11:32;10.60;99.90
52285;DHT22;38238;53.304;6.606;2022-12-20T12:14:01;10.60;99.90
52285;DHT22;38238;53.304;6.606;2022-12-20T12:16:36;10.60;99.90
52285;DHT22;38238;53.304;6.606;2022-12-20T12:19:02;10.60;99.90
52285;DHT22;38238;53.304;6.606;2022-12-20T12:21:52;10.60;99.90
52285;DHT22;38238;53.304;6.606;2022-12-20T12:24:42;10.60;99.90
52285;DHT22;38238;53.304;6.606;2022-12-20T12:27:25;10.60;99.90
52285;DHT22;38238;53.304;6.606;2022-12-20T12:29:53;10.50;99.90
52285;DHT22;38238;53.304;6.606;2022-12-20T12:35:22;10.50;99.90
52285;DHT22;38238;53.304;6.606;2022-12-20T12:38:26;10.50;99.90
52285;DHT22;38238;53.304;6.606;2022-12-20T12:48:56;10.40;99.90
52285;DHT22;38238;53.304;6.606;2022-12-20T12:51:31;10.30;99.90
52285;DHT22;38238;53.304;6.606;2022-12-20T12:54:38;10.30;99.90
52285;DHT22;38238;53.304;6.606;2022-12-20T12:57:22;10.30;99.90
52285;DHT22;38238;53.304;6.606;2022-12-20T12:59:49;10.30;99.90
52285;DHT22;38238;53.304;6.606;2022-12-20T13:17:55;10.20;99.90
52285;DHT22;38238;53.304;6.606;2022-12-20T13:20:42;10.20;99.90
52285;DHT22;38238;53.304;6.606;2022-12-20T13:25:35;11.00;99.90
52285;DHT22;38238;53.304;6.606;2022-12-20T13:33:21;10.30;99.90
52285;DHT22;38238;53.304;6.606;2022-12-20T13:36:00;10.30;99.90
52285;DHT22;38238;53.304;6.606;2022-12-20T13:43:57;10.30;99.90
52285;DHT22;38238;53.304;6.606;2022-12-20T13:46:56;10.30;99.90
52285;DHT22;38238;53.304;6.606;2022-12-20T13:49:26;10.30;99.90
52285;DHT22;38238;53.304;6.606;2022-12-20T13:54:52;10.40;99.90
52285;DHT22;38238;53.304;6.606;2022-12-20T13:57:32;10.40;99.90
52285;DHT22;38238;53.304;6.606;2022-12-20T14:00:05;10.40;99.90
52285;DHT22;38238;53.304;6.606;2022-12-20T14:02:34;10.40;99.90
52285;DHT22;38238;53.304;6.606;2022-12-20T14:05:05;10.30;99.90
52285;DHT22;38238;53.304;6.606;2022-12-20T14:07:33;10.40;99.90
52285;DHT22;38238;53.304;6.606;2022-12-20T14:10:01;10.40;99.90
52285;DHT22;38238;53.304;6.606;2022-12-20T14:12:28;10.40;99.90
52285;DHT22;38238;53.304;6.606;2022-12-20T14:14:56;10.40;99.90
52285;DHT22;38238;53.304;6.606;2022-12-20T14:17:28;10.30;99.90
52285;DHT22;38238;53.304;6.606;2022-12-20T14:22:35;10.40;99.90
52285;DHT22;38238;53.304;6.606;2022-12-20T14:25:03;10.40;99.90
52285;DHT22;38238;53.304;6.606;2022-12-20T14:27:34;10.40;99.90
52285;DHT22;38238;53.304;6.606;2022-12-20T14:30:00;10.40;99.90
52285;DHT22;38238;53.304;6.606;2022-12-20T14:32:26;10.40;99.90
52285;DHT22;38238;53.304;6.606;2022-12-20T14:34:52;10.40;99.90
52285;DHT22;38238;53.304;6.606;2022-12-20T14:37:34;10.40;99.90
52285;DHT22;38238;53.304;6.606;2022-12-20T14:42:38;10.40;99.90
52285;DHT22;38238;53.304;6.606;2022-12-20T14:48:00;10.40;99.90
52285;DHT22;38238;53.304;6.606;2022-12-20T14:50:31;10.40;99.90
52285;DHT22;38238;53.304;6.606;2022-12-20T14:52:57;10.50;99.90
52285;DHT22;38238;53.304;6.606;2022-12-20T14:55:28;10.40;99.90
52285;DHT22;38238;53.304;6.606;2022-12-20T14:57:56;10.40;99.90
52285;DHT22;38238;53.304;6.606;2022-12-20T15:08:16;10.30;99.90
52285;DHT22;38238;53.304;6.606;2022-12-20T15:13:38;10.40;99.90
52285;DHT22;38238;53.304;6.606;2022-12-20T15:16:19;10.30;99.90
52285;DHT22;38238;53.304;6.606;2022-12-20T15:18:45;10.30;99.90
52285;DHT22;38238;53.304;6.606;2022-12-20T15:21:13;10.30;99.90
52285;DHT22;38238;53.304;6.606;2022-12-20T15:23:46;10.30;99.90
52285;DHT22;38238;53.304;6.606;2022-12-20T15:26:16;10.30;99.90
52285;DHT22;38238;53.304;6.606;2022-12-20T15:28:42;10.30;99.90
52285;DHT22;38238;53.304;6.606;2022-12-20T15:31:10;10.30;99.90
52285;DHT22;38238;53.304;6.606;2022-12-20T15:33:38;10.30;99.90
52285;DHT22;38238;53.304;6.606;2022-12-20T15:36:05;10.30;99.90
52285;DHT22;38238;53.304;6.606;2022-12-20T15:38:30;10.30;99.90
52285;DHT22;38238;53.304;6.606;2022-12-20T15:41:02;10.30;99.90
52285;DHT22;38238;53.304;6.606;2022-12-20T15:43:34;10.30;99.90
52285;DHT22;38238;53.304;6.606;2022-12-20T15:46:01;10.30;99.90
52285;DHT22;38238;53.304;6.606;2022-12-20T15:48:27;10.20;99.90
52285;DHT22;38238;53.304;6.606;2022-12-20T15:50:55;10.30;99.90
52285;DHT22;38238;53.304;6.606;2022-12-20T15:53:24;10.20;99.90
52285;DHT22;38238;53.304;6.606;2022-12-20T15:55:53;10.30;99.90
52285;DHT22;38238;53.304;6.606;2022-12-20T15:58:19;10.20;99.90
52285;DHT22;38238;53.304;6.606;2022-12-20T16:00:45;10.20;99.90
52285;DHT22;38238;53.304;6.606;2022-12-20T16:03:29;10.20;99.90
52285;DHT22;38238;53.304;6.606;2022-12-20T16:05:55;10.20;99.90
52285;DHT22;38238;53.304;6.606;2022-12-20T16:08:20;10.10;99.90
52285;DHT22;38238;53.304;6.606;2022-12-20T16:10:48;10.10;99.90
52285;DHT22;38238;53.304;6.606;2022-12-20T16:13:21;10.10;99.90
52285;DHT22;38238;53.304;6.606;2022-12-20T16:15:47;10.10;99.90
52285;DHT22;38238;53.304;6.606;2022-12-20T16:18:14;10.10;99.90
52285;DHT22;38238;53.304;6.606;2022-12-20T16:20:40;10.10;99.90
52285;DHT22;38238;53.304;6.606;2022-12-20T16:23:17;10.10;99.90
52285;DHT22;38238;53.304;6.606;2022-12-20T16:25:43;10.10;99.90
52285;DHT22;38238;53.304;6.606;2022-12-20T16:28:09;10.10;99.90
52285;DHT22;38238;53.304;6.606;2022-12-20T16:30:35;10.10;99.90
52285;DHT22;38238;53.304;6.606;2022-12-20T16:33:00;10.00;99.90
52285;DHT22;38238;53.304;6.606;2022-12-20T16:35:30;10.00;99.90
52285;DHT22;38238;53.304;6.606;2022-12-20T16:37:58;10.00;99.90
52285;DHT22;38238;53.304;6.606;2022-12-20T16:40:29;10.00;99.90
52285;DHT22;38238;53.304;6.606;2022-12-20T16:42:57;10.00;99.90
52285;DHT22;38238;53.304;6.606;2022-12-20T16:45:26;10.00;99.90
52285;DHT22;38238;53.304;6.606;2022-12-20T16:47:52;10.00;99.90
52285;DHT22;38238;53.304;6.606;2022-12-20T16:50:19;9.90;99.90
52285;DHT22;38238;53.304;6.606;2022-12-20T16:52:45;9.90;99.90
52285;DHT22;38238;53.304;6.606;2022-12-20T16:55:24;9.90;99.90
52285;DHT22;38238;53.304;6.606;2022-12-20T16:57:51;9.90;99.90
52285;DHT22;38238;53.304;6.606;2022-12-20T17:00:24;9.90;99.90
52285;DHT22;38238;53.304;6.606;2022-12-20T17:02:51;9.90;99.90
52285;DHT22;38238;53.304;6.606;2022-12-20T17:05:25;9.90;99.90
52285;DHT22;38238;53.304;6.606;2022-12-20T17:07:52;9.90;99.90
52285;DHT22;38238;53.304;6.606;2022-12-20T17:10:17;9.90;99.90
52285;DHT22;38238;53.304;6.606;2022-12-20T17:12:44;9.90;99.90
52285;DHT22;38238;53.304;6.606;2022-12-20T17:15:25;9.80;99.90
52285;DHT22;38238;53.304;6.606;2022-12-20T17:17:51;9.80;99.90
52285;DHT22;38238;53.304;6.606;2022-12-20T17:20:18;9.80;99.90
52285;DHT22;38238;53.304;6.606;2022-12-20T17:22:47;9.80;99.90
52285;DHT22;38238;53.304;6.606;2022-12-20T17:25:29;9.80;99.90
52285;DHT22;38238;53.304;6.606;2022-12-20T17:27:55;9.80;99.90
52285;DHT22;38238;53.304;6.606;2022-12-20T17:30:22;9.80;99.90
52285;DHT22;38238;53.304;6.606;2022-12-20T17:32:48;9.80;99.90
52285;DHT22;38238;53.304;6.606;2022-12-20T17:35:29;9.80;99.90
52285;DHT22;38238;53.304;6.606;2022-12-20T17:37:56;9.70;99.90
52285;DHT22;38238;53.304;6.606;2022-12-20T17:40:23;9.70;99.90
52285;DHT22;38238;53.304;6.606;2022-12-20T17:42:49;9.70;99.90
52285;DHT22;38238;53.304;6.606;2022-12-20T17:45:27;9.70;99.90
52285;DHT22;38238;53.304;6.606;2022-12-20T17:47:54;9.70;99.90
52285;DHT22;38238;53.304;6.606;2022-12-20T17:50:21;9.60;99.90
52285;DHT22;38238;53.304;6.606;2022-12-20T17:52:47;9.60;99.90
52285;DHT22;38238;53.304;6.606;2022-12-20T17:55:21;9.60;99.90
52285;DHT22;38238;53.304;6.606;2022-12-20T17:57:48;9.60;99.90
52285;DHT22;38238;53.304;6.606;2022-12-20T18:00:23;8.40;99.90
52285;DHT22;38238;53.304;6.606;2022-12-20T18:02:49;9.50;99.90
52285;DHT22;38238;53.304;6.606;2022-12-20T18:05:14;9.60;99.90